world map with LBU marked

LBU - Airport

This information may not be accurate or current and is not valid for navigation or flight planning. No warranty of fitness for any purpose is made or implied.

flag of Wilayah Persekutuan Labuanflag of Malaysia

Donate via PayPal

Additional information is available on the NEW Great Circle Mapper

Location
City:  Labuan, Wilayah Persekutuan Labuan, Malaysia
ICAO / IATA:WBKL / LBU

Details
Type:Airport (Aerodrome, Airfield)
Use:Public/Civil, Military
Latitude:5°18'02"N (5.300683)
Longitude:115°15'01"E (115.250181)
Datum:WGS 1984
Elevation:101 ft (31 m)
Runways:1
Longest:7546 × 148 ft (2300 × 45 m)

Time
Timezone:UTC+8 (DST+10)
Local Time:

Weather
METAR:WBKL  041400Z 36003KT 320V030 9999 FEW013 BKN300 27/25 Q1012
TAF:WBKL  041100Z 0412/0512 01007KT 9999 FEW015

Related Locations
Nearby:
Farthest:SWUY: 12390 mi / 19939 km
Coari [Urucu], AM, BR

Find:

   beyond  
but within

Other Information
Maps:
Sources:

  


 


Great Circle Mapper   Great Circle Mapper
Great Circle Mapper FAQ   Great Circle Mapper FAQ
  Karl's Home Page
KLSē   KLSē Home
   GC on Facebook
Airlines of the World   Airlines of the World
Donate via PayPal


Copyright © 2004-2019, Karl L. Swartz. All rights reserved.
All trademarks mentioned herein belong to their respective owners.

Please see credits for attribution and copyright information.

Karl Swartz <karl@kls2.com>
  Powered by FreeBSD
Valid HTML 4.01!
Labeled with ICRA
hCard Microformat
Geo Microformat